^^
Grace C. Lehan Memorial Weather Station Historical Data
Daily Summary for May 7, 2021 Units:  English    Metric   Both
Daily Weekly Monthly Yearly
  High: Low: Average:
Temperature: 44.2 °F 32.2 °F 38.4 °F
Dew Point: 35.7 °F 21.2 °F 25.1 °F
Humidity: 75% 43.5% 59%
Wind Speed: 9.5mph 0mph 1.1mph
Wind Gust: 22mph - -
Wind- - WNW
Pressure: 30.17 in 29.77 in -
Precipitation: 0.00 in    
 
 
Tabular Data for May 7, 2021
Time Temperature Dew Point Pressure Wind Wind Speed Wind Gust Humidity Rainfall Rate (Hourly) solar
00:04 43.1 °F 35.7 °F 29.77 in NW 6.7 mph 22 mph 75% 0.01 in 0 W/m2
00:09 42.9 °F 35.3 °F 29.78 in NW 8.3 mph 18 mph 74.2% 0.01 in 0 W/m2
00:14 42.8 °F 34.8 °F 29.78 in WNW 5.3 mph 18 mph 73.2% 0.01 in 0 W/m2
00:19 42.7 °F 34.2 °F 29.79 in NW 6.8 mph 20 mph 71.9% 0.01 in 0 W/m2
00:24 42.5 °F 33.5 °F 29.79 in NW 9 mph 20 mph 70.1% 0.01 in 0 W/m2
00:29 42.3 °F 32.8 °F 29.79 in NW 9.5 mph 20 mph 68.6% 0.01 in 0 W/m2
00:34 42.2 °F 32.4 °F 29.79 in WNW 6.8 mph 20 mph 67.8% 0.01 in 0 W/m2
00:39 42.1 °F 32.3 °F 29.80 in NW 4.5 mph 13 mph 68% 0.01 in 0 W/m2
00:44 41.9 °F 31.9 °F 29.80 in WNW 4.1 mph 13 mph 67.5% 0.01 in 0 W/m2
00:49 41.7 °F 31.8 °F 29.81 in WNW 2.5 mph 13 mph 67.8% 0.01 in 0 W/m2
00:54 41.5 °F 31.5 °F 29.81 in WNW 2.9 mph 13 mph 67.5% 0.01 in 0 W/m2
00:59 41.3 °F 31.4 °F 29.81 in WNW 1.7 mph 13 mph 67.5% 0.01 in 0 W/m2
01:04 41.1 °F 31 °F 29.82 in WNW 3.3 mph 13 mph 67.2% 0.01 in 0 W/m2
01:09 40.9 °F 30.8 °F 29.82 in WNW 3.3 mph 10 mph 67% 0.00 in 0 W/m2
01:14 40.8 °F 30.6 °F 29.82 in WNW 3.8 mph 11 mph 66.8% 0.00 in 0 W/m2
01:19 40.7 °F 30.5 °F 29.83 in WNW 3.6 mph 14 mph 66.6% 0.00 in 0 W/m2
01:24 40.6 °F 30.5 °F 29.83 in WNW 1.6 mph 14 mph 67% 0.00 in 0 W/m2
01:29 40.5 °F 30.4 °F 29.83 in WNW 0.6 mph 14 mph 67% 0.00 in 0 W/m2
01:34 40.3 °F 30.6 °F 29.84 in WNW 0.4 mph 14 mph 68% 0.00 in 0 W/m2
01:39 40.1 °F 30.5 °F 29.84 in WNW 1.1 mph 7 mph 68.2% 0.00 in 0 W/m2
01:44 39.9 °F 30.2 °F 29.85 in WNW 1.8 mph 9 mph 68.2% 0.00 in 0 W/m2
01:49 39.7 °F 30.1 °F 29.85 in WNW 1.4 mph 9 mph 68% 0.00 in 0 W/m2
01:54 39.7 °F 30.2 °F 29.86 in WNW 0.6 mph 9 mph 68.4% 0.00 in 0 W/m2
01:59 39.6 °F 30.3 °F 29.86 in WNW 0.2 mph 9 mph 69% 0.00 in 0 W/m2
02:04 39.5 °F 30.2 °F 29.86 in WNW 0.3 mph 9 mph 69% 0.00 in 0 W/m2
02:09 39.4 °F 30.2 °F 29.87 in WNW 0.2 mph 6 mph 69.2% 0.00 in 0 W/m2
02:14 39.3 °F 30.4 °F 29.87 in Calm   6 mph 70% 0.00 in 0 W/m2
02:19 39.2 °F 30.2 °F 29.88 in Calm   6 mph 70% 0.00 in 0 W/m2
02:24 39.1 °F 29.7 °F 29.88 in NW 0.7 mph 8 mph 68.8% 0.00 in 0 W/m2
02:29 39 °F 29.7 °F 29.88 in NW 0.3 mph 8 mph 69% 0.00 in 0 W/m2
02:34 38.9 °F 29.3 °F 29.89 in NW 1.5 mph 8 mph 68.3% 0.00 in 0 W/m2
02:39 38.9 °F 29.3 °F 29.90 in WNW 0.5 mph 6 mph 68% 0.00 in 0 W/m2
02:44 38.8 °F 29.2 °F 29.90 in WNW 1.9 mph 10 mph 68% 0.00 in 0 W/m2
02:49 38.7 °F 28.8 °F 29.90 in WNW 2.9 mph 11 mph 67.2% 0.00 in 0 W/m2
02:54 38.7 °F 28.7 °F 29.90 in WNW 1.5 mph 11 mph 67% 0.00 in 0 W/m2
02:59 38.7 °F 28.7 °F 29.90 in WNW 2.1 mph 11 mph 67% 0.00 in 0 W/m2
03:04 38.6 °F 28.6 °F 29.90 in West 1.2 mph 11 mph 67% 0.00 in 0 W/m2
03:09 38.6 °F 28.6 °F 29.90 in West 1.5 mph 9 mph 67% 0.00 in 0 W/m2
03:14 38.5 °F 28.5 °F 29.90 in West 0.5 mph 9 mph 67% 0.00 in 0 W/m2
03:19 38.3 °F 28.4 °F 29.91 in WSW 0.4 mph 9 mph 67% 0.00 in 0 W/m2
03:24 38.2 °F 28.2 °F 29.91 in WSW 0.1 mph 9 mph 67% 0.00 in 0 W/m2
03:29 38.1 °F 28.4 °F 29.92 in WSW 0.2 mph 9 mph 68% 0.00 in 0 W/m2
03:34 37.9 °F 28.3 °F 29.92 in WSW 0.1 mph 9 mph 68% 0.00 in 0 W/m2
03:39 37.7 °F 28.1 °F 29.92 in WSW 0.3 mph 2 mph 68% 0.00 in 0 W/m2
03:44 37.5 °F 27.9 °F 29.92 in Calm   2 mph 68% 0.00 in 0 W/m2
03:49 37.4 °F 27.9 °F 29.92 in Calm   2 mph 68.3% 0.00 in 0 W/m2
03:54 37.2 °F 27.9 °F 29.92 in Calm   2 mph 68.9% 0.00 in 0 W/m2
03:59 37 °F 27.8 °F 29.92 in West 0.4 mph 5 mph 69% 0.00 in 0 W/m2
04:09 36.9 °F 27.4 °F 29.92 in WNW 0.2 mph 2 mph 68% 0.00 in 0 W/m2
04:14 37 °F 27.4 °F 29.92 in WNW 1.9 mph 10 mph 68% 0.00 in 0 W/m2
04:19 37 °F 27.5 °F 29.92 in WNW 0.2 mph 10 mph 68.2% 0.00 in 0 W/m2
04:24 37 °F 27.4 °F 29.93 in WNW 0.1 mph 10 mph 68% 0.00 in 0 W/m2
04:29 36.9 °F 27.3 °F 29.93 in West 0.4 mph 10 mph 68% 0.00 in 0 W/m2
04:34 36.8 °F 27.2 °F 29.94 in West 0.9 mph 10 mph 68% 0.00 in 0 W/m2
04:39 36.8 °F 27.2 °F 29.94 in West 0.2 mph 7 mph 68% 0.00 in 0 W/m2
04:44 36.7 °F 27.2 °F 29.94 in Calm   7 mph 68% 0.00 in 0 W/m2
04:49 36.6 °F 26.9 °F 29.94 in Calm   7 mph 67.6% 0.00 in 0 W/m2
04:54 36.5 °F 26.8 °F 29.96 in Calm   7 mph 67.6% 0.00 in 0 W/m2
04:59 36.4 °F 26.5 °F 29.96 in Calm   7 mph 67.1% 0.00 in 0 W/m2
05:04 36.2 °F 26.3 °F 29.97 in Calm   7 mph 67% 0.00 in 0 W/m2
05:09 36.1 °F 26.5 °F 29.97 in Calm     67.7% 0.00 in 0 W/m2
05:14 36 °F 26.5 °F 29.97 in Calm     68.2% 0.00 in 0 W/m2
05:19 35.8 °F 26.7 °F 29.98 in Calm     69.3% 0.00 in 0 W/m2
05:24 35.6 °F 26.7 °F 29.98 in WNW 1 mph 11 mph 70% 0.00 in 0 W/m2
05:29 35.4 °F 26.4 °F 29.99 in WNW 0.7 mph 11 mph 69.4% 0.00 in 0 W/m2
05:34 35.4 °F 26.3 °F 29.99 in WNW 0.1 mph 11 mph 69.2% 0.00 in 0 W/m2
05:39 35.4 °F 26 °F 29.99 in WNW 2.2 mph 11 mph 68.3% 0.00 in 0 W/m2
05:44 35.6 °F 25.5 °F 29.99 in WNW 0.9 mph 11 mph 66.4% 0.00 in 0 W/m2
05:49 35.9 °F 25.5 °F 30.00 in WNW 2.1 mph 11 mph 65.6% 0.00 in 0 W/m2
05:54 36 °F 25.2 °F 30.00 in NW 1.1 mph 11 mph 64.4% 0.00 in 0 W/m2
05:59 36.2 °F 24.8 °F 30.00 in WNW 2.9 mph 14 mph 62.9% 0.00 in 0 W/m2
06:04 36.3 °F 24.9 °F 30.00 in WNW 0.5 mph 14 mph 62.9% 0.00 in 0 W/m2
06:09 36.4 °F 24.8 °F 30.00 in WNW 1.2 mph 7 mph 62.6% 0.00 in 0 W/m2
06:14 36.3 °F 24.6 °F 30.00 in WNW 4.1 mph 12 mph 62% 0.00 in 0 W/m2
06:19 36.4 °F 24.2 °F 30.00 in WNW 3.8 mph 12 mph 61% 0.00 in 0 W/m2
06:24 36.5 °F 24.3 °F 30.01 in WNW 2.9 mph 13 mph 61% 0.00 in 0 W/m2
06:29 36.5 °F 24.1 °F 30.01 in WNW 3.1 mph 13 mph 60.3% 0.00 in 0 W/m2
06:34 36.6 °F 24.2 °F 30.01 in WNW 1.4 mph 13 mph 60.3% 0.00 in 0 W/m2
06:39 36.6 °F 24 °F 30.01 in NW 2 mph 9 mph 60% 0.00 in 0 W/m2
06:44 36.6 °F 23.9 °F 30.01 in WNW 1.3 mph 10 mph 59.6% 0.00 in 0 W/m2
06:49 36.6 °F 23.9 °F 30.01 in NW 0.9 mph 10 mph 59.7% 0.00 in 0 W/m2
06:54 36.5 °F 23.7 °F 30.02 in WNW 1.5 mph 10 mph 59.5% 0.00 in 0 W/m2
06:59 36.4 °F 23.5 °F 30.02 in WNW 0.5 mph 10 mph 59.2% 0.00 in 0 W/m2
07:04 36.4 °F 23.4 °F 30.02 in WNW 0.4 mph 10 mph 59% 0.00 in 0 W/m2
07:09 36.2 °F 23.3 °F 30.02 in WNW 0.5 mph 7 mph 59% 0.00 in 7 W/m2
07:14 36.1 °F 23.2 °F 30.02 in WNW 0.5 mph 7 mph 59% 0.00 in 7 W/m2
07:19 36 °F 23.5 °F 30.03 in WNW 0.1 mph 7 mph 60% 0.00 in 11 W/m2
07:24 35.9 °F 23.6 °F 30.03 in Calm   7 mph 60.5% 0.00 in 12 W/m2
07:29 35.7 °F 24 °F 30.03 in WNW 0.1 mph 7 mph 62.1% 0.00 in 19 W/m2
07:34 35.5 °F 24.1 °F 30.03 in Calm   7 mph 63% 0.00 in 28 W/m2
07:39 35.4 °F 24.3 °F 30.04 in Calm     63.6% 0.00 in 40 W/m2
07:44 35.4 °F 24.8 °F 30.04 in Calm     64.9% 0.00 in 58 W/m2
07:49 35.5 °F 24.7 °F 30.05 in Calm     64.4% 0.00 in 84 W/m2
07:54 35.8 °F 25.1 °F 30.05 in Calm     64.7% 0.00 in 84 W/m2
07:59 36.3 °F 25.3 °F 30.06 in Calm     64% 0.00 in 107 W/m2
08:00 36.5 °F 25.5 °F 30.05 in Calm     64% 0.00 in 107 W/m2
08:09 37.7 °F 26.5 °F 30.06 in Calm     63.6% 0.00 in 148 W/m2
08:14 38.6 °F 26.8 °F 30.06 in Calm     62.4% 0.00 in 148 W/m2
08:19 39.5 °F 27 °F 30.06 in Calm     60.7% 0.00 in 181 W/m2
08:24 40.3 °F 27 °F 30.07 in Calm     58.8% 0.00 in 192 W/m2
08:29 40.9 °F 26.6 °F 30.07 in WNW 0.6 mph 3 mph 56.5% 0.00 in 176 W/m2
08:34 41.3 °F 26.9 °F 30.07 in Calm   3 mph 56.2% 0.00 in 174 W/m2
08:39 41.8 °F 27.1 °F 30.08 in West 0.2 mph 3 mph 55.8% 0.00 in 207 W/m2
08:44 42.2 °F 27.1 °F 30.08 in Calm   3 mph 54.9% 0.00 in 216 W/m2
08:49 42.6 °F 26.7 °F 30.08 in West 0.3 mph 3 mph 53.1% 0.00 in 202 W/m2
08:54 42.9 °F 26.3 °F 30.08 in West 0.3 mph 3 mph 51.5% 0.00 in 171 W/m2
08:59 43 °F 26.7 °F 30.08 in WNW 1.3 mph 9 mph 52.3% 0.00 in 148 W/m2
09:04 42.8 °F 25.7 °F 30.08 in WNW 0.5 mph 9 mph 50.5% 0.00 in 155 W/m2
09:09 42.6 °F 25.5 °F 30.09 in WNW 0.4 mph 4 mph 50.6% 0.00 in 200 W/m2
09:14 42.4 °F 25.8 °F 30.09 in Calm   4 mph 51.3% 0.00 in 172 W/m2
09:19 42.4 °F 25.6 °F 30.09 in West 0.9 mph 4 mph 51.2% 0.00 in 195 W/m2
09:24 42.3 °F 25.4 °F 30.10 in West 1.6 mph 9 mph 51% 0.00 in 207 W/m2
09:29 42.1 °F 25 °F 30.10 in West 1.9 mph 10 mph 50.5% 0.00 in 141 W/m2
09:34 41.8 °F 24.8 °F 30.10 in WNW 5 mph 14 mph 50.6% 0.00 in 158 W/m2
09:39 41.4 °F 24.4 °F 30.11 in WNW 5.8 mph 14 mph 50.5% 0.00 in 158 W/m2
09:44 41.1 °F 23.9 °F 30.11 in WNW 2.5 mph 14 mph 50.2% 0.00 in 151 W/m2
09:49 41 °F 25 °F 30.11 in WNW 1 mph 14 mph 52.6% 0.00 in 163 W/m2
09:54 41.2 °F 25.6 °F 30.11 in WNW 2.7 mph 14 mph 53.4% 0.00 in 176 W/m2
09:59 41.3 °F 24.8 °F 30.11 in WNW 4.3 mph 14 mph 51.5% 0.00 in 204 W/m2
10:04 41.3 °F 24.6 °F 30.11 in West 4.3 mph 14 mph 51% 0.00 in 276 W/m2
10:09 41.4 °F 24.9 °F 30.11 in West 1.8 mph 11 mph 51.5% 0.00 in 294 W/m2
10:14 41.7 °F 25.4 °F 30.11 in NW 1.2 mph 11 mph 52% 0.00 in 232 W/m2
10:19 41.8 °F 25.3 °F 30.11 in WNW 4.1 mph 11 mph 51.5% 0.00 in 155 W/m2
10:24 41.7 °F 24.5 °F 30.11 in NW 2.6 mph 11 mph 50.2% 0.00 in 202 W/m2
10:29 41.6 °F 25 °F 30.11 in WNW 1.8 mph 11 mph 51.4% 0.00 in 236 W/m2
10:34 41.7 °F 25.1 °F 30.10 in WNW 4 mph 12 mph 51.3% 0.00 in 167 W/m2
10:39 41.6 °F 24.4 °F 30.10 in WNW 4.4 mph 12 mph 50.1% 0.00 in 142 W/m2
10:44 41.4 °F 24.3 °F 30.10 in WNW 2.6 mph 12 mph 50.3% 0.00 in 153 W/m2
10:49 41.4 °F 25.1 °F 30.10 in WNW 1.5 mph 12 mph 51.8% 0.00 in 172 W/m2
10:54 41.5 °F 25.3 °F 30.10 in WNW 1.2 mph 12 mph 52.3% 0.00 in 229 W/m2
10:59 41.6 °F 25.7 °F 30.10 in WNW 1 mph 12 mph 52.7% 0.00 in 223 W/m2
11:04 42 °F 26.2 °F 30.10 in West 0.4 mph 12 mph 53.1% 0.00 in 223 W/m2
11:09 42.3 °F 25.7 °F 30.10 in WNW 1.7 mph 6 mph 51.4% 0.00 in 188 W/m2
11:14 42.5 °F 25.9 °F 30.10 in WNW 0.6 mph 6 mph 51.4% 0.00 in 195 W/m2
11:19 42.7 °F 25.5 °F 30.09 in WNW 0.8 mph 7 mph 50.2% 0.00 in 199 W/m2
11:24 42.7 °F 25.6 °F 30.09 in WNW 1.6 mph 7 mph 50.5% 0.00 in 213 W/m2
11:29 42.6 °F 25 °F 30.09 in WNW 1.3 mph 9 mph 49.3% 0.00 in 218 W/m2
11:34 42.6 °F 25.3 °F 30.09 in WNW 0.7 mph 9 mph 50% 0.00 in 204 W/m2
11:39 42.5 °F 24.7 °F 30.09 in West 3 mph 12 mph 48.9% 0.00 in 179 W/m2
11:44 42.3 °F 24.2 °F 30.09 in WNW 3.8 mph 13 mph 48.4% 0.00 in 165 W/m2
11:49 42 °F 24.8 °F 30.09 in WNW 1.2 mph 13 mph 50.3% 0.00 in 158 W/m2
11:54 41.9 °F 24.9 °F 30.09 in WNW 1.6 mph 13 mph 50.6% 0.00 in 195 W/m2
11:59 41.8 °F 24.5 °F 30.09 in WNW 5.5 mph 13 mph 49.9% 0.00 in 223 W/m2
12:00 41.8 °F 24.1 °F 30.09 in WNW 9 mph 13 mph 49% 0.00 in 211 W/m2
12:09 41.9 °F 25.8 °F 30.09 in WNW 1.2 mph 7 mph 52.6% 0.00 in 239 W/m2
12:14 42.1 °F 25.2 °F 30.09 in WNW 3 mph 11 mph 50.8% 0.00 in 262 W/m2
12:19 42.3 °F 25.1 °F 30.09 in WNW 1.7 mph 11 mph 50.3% 0.00 in 295 W/m2
12:24 42.6 °F 25.6 °F 30.09 in WNW 3.3 mph 11 mph 50.8% 0.00 in 341 W/m2
12:29 42.8 °F 24.5 °F 30.09 in WNW 6.3 mph 13 mph 48% 0.00 in 341 W/m2
12:34 42.8 °F 24.3 °F 30.09 in WNW 2.4 mph 13 mph 47.6% 0.00 in 295 W/m2
12:39 42.9 °F 24.7 °F 30.09 in NW 4 mph 13 mph 48.3% 0.00 in 287 W/m2
12:44 43.1 °F 24.4 °F 30.10 in WNW 4 mph 13 mph 47.3% 0.00 in 274 W/m2
12:49 43.1 °F 24.3 °F 30.09 in WNW 3.9 mph 13 mph 47.2% 0.00 in 322 W/m2
12:54 43 °F 24.1 °F 30.09 in WNW 5 mph 13 mph 46.8% 0.00 in 144 W/m2
12:59 43 °F 23.7 °F 30.09 in WNW 5.4 mph 13 mph 46.1% 0.00 in 199 W/m2
13:04 42.8 °F 23.5 °F 30.10 in WNW 3.8 mph 13 mph 46% 0.00 in 188 W/m2
13:09 42.7 °F 23.8 °F 30.10 in West 1.8 mph 12 mph 46.8% 0.00 in 183 W/m2
13:14 42.8 °F 24.5 °F 30.10 in West 2.4 mph 12 mph 48% 0.00 in 276 W/m2
13:19 43.1 °F 24.3 °F 30.10 in WSW 0.9 mph 12 mph 47.1% 0.00 in 234 W/m2
13:24 43.4 °F 24.1 °F 30.10 in West 2.6 mph 12 mph 46.2% 0.00 in 153 W/m2
13:29 43.4 °F 23.5 °F 30.09 in WNW 1.4 mph 12 mph 45% 0.00 in 77 W/m2
13:34 43.2 °F 23.7 °F 30.09 in WNW 2.8 mph 12 mph 45.8% 0.00 in 137 W/m2
13:39 42.9 °F 23.6 °F 30.09 in WNW 2.5 mph 10 mph 46.2% 0.00 in 102 W/m2
13:44 42.6 °F 23.2 °F 30.09 in WNW 1.9 mph 10 mph 45.8% 0.00 in 230 W/m2
13:49 42.5 °F 23.3 °F 30.09 in WSW 2.5 mph 10 mph 46.2% 0.00 in 253 W/m2
13:54 42.8 °F 23.4 °F 30.09 in WSW 1.6 mph 10 mph 45.9% 0.00 in 209 W/m2
13:59 43 °F 23.7 °F 30.09 in West 1.4 mph 10 mph 46% 0.00 in 276 W/m2
14:04 43.4 °F 24.2 °F 30.09 in West 0.7 mph 10 mph 46.3% 0.00 in 155 W/m2
14:09 43.9 °F 24 °F 30.09 in West 0.4 mph 6 mph 45.2% 0.00 in 172 W/m2
14:14 44.2 °F 23.8 °F 30.09 in West 0.9 mph 6 mph 44.3% 0.00 in 135 W/m2
14:19 44.1 °F 23.8 °F 30.09 in WNW 1.7 mph 9 mph 44.5% 0.00 in 125 W/m2
14:24 43.9 °F 23.1 °F 30.10 in West 2.4 mph 10 mph 43.5% 0.00 in 149 W/m2
14:29 43.7 °F 23.5 °F 30.10 in West 0.7 mph 10 mph 44.6% 0.00 in 79 W/m2
14:34 43.6 °F 23.9 °F 30.10 in West 0.2 mph 10 mph 45.4% 0.00 in 76 W/m2
14:39 43.6 °F 23.6 °F 30.09 in West 1.3 mph 5 mph 45% 0.00 in 74 W/m2
14:44 43.3 °F 23.4 °F 30.10 in West 2.5 mph 9 mph 45% 0.00 in 77 W/m2
14:49 42.9 °F 23.1 °F 30.09 in WNW 1.7 mph 9 mph 45% 0.00 in 79 W/m2
14:54 42.7 °F 22.8 °F 30.09 in WNW 0.1 mph 9 mph 45% 0.00 in 83 W/m2
14:59 42.5 °F 22.3 °F 30.09 in West 1.9 mph 9 mph 44.3% 0.00 in 62 W/m2
15:04 42.4 °F 22.8 °F 30.10 in WSW 0.3 mph 9 mph 45.6% 0.00 in 49 W/m2
15:09 42.3 °F 23.5 °F 30.10 in WSW 0.1 mph 3 mph 46.9% 0.00 in 40 W/m2
15:14 42.2 °F 23.2 °F 30.10 in Calm   3 mph 46.6% 0.00 in 42 W/m2
15:19 42 °F 23 °F 30.10 in Calm   3 mph 46.5% 0.00 in 42 W/m2
15:24 41.9 °F 23.3 °F 30.10 in WSW 0.6 mph 4 mph 47.3% 0.00 in 40 W/m2
15:29 41.8 °F 23.3 °F 30.10 in WSW 0.4 mph 4 mph 47.5% 0.00 in 40 W/m2
15:34 41.7 °F 23.3 °F 30.11 in WSW 0.4 mph 4 mph 47.7% 0.00 in 32 W/m2
15:39 41.5 °F 22.9 °F 30.11 in Calm   3 mph 47.1% 0.00 in 25 W/m2
15:44 41.4 °F 22.8 °F 30.11 in WSW 0.3 mph 3 mph 47% 0.00 in 25 W/m2
15:49 41.3 °F 22.6 °F 30.11 in WSW 0.3 mph 4 mph 47% 0.00 in 18 W/m2
15:54 41.1 °F 22.9 °F 30.12 in WSW 0.1 mph 4 mph 48% 0.00 in 18 W/m2
15:59 40.9 °F 22.9 °F 30.13 in WSW 0.3 mph 4 mph 48.3% 0.00 in 18 W/m2
16:09 40.6 °F 23.4 °F 30.13 in Calm   1 mph 50% 0.00 in 11 W/m2
16:14 40.4 °F 23 °F 30.12 in WSW 0.4 mph 4 mph 49.4% 0.00 in 5 W/m2
16:19 40.2 °F 22.6 °F 30.13 in WSW 0.1 mph 4 mph 49% 0.00 in 0 W/m2
16:24 40.1 °F 22.5 °F 30.13 in Calm   4 mph 49% 0.00 in 0 W/m2
16:29 39.9 °F 22.3 °F 30.13 in WSW 0.1 mph 4 mph 49% 0.00 in 0 W/m2
16:34 39.7 °F 22.1 °F 30.13 in Calm   4 mph 49% 0.00 in 0 W/m2
16:39 39.5 °F 21.9 °F 30.13 in Calm     49% 0.00 in 0 W/m2
16:44 39.3 °F 22 °F 30.13 in Calm     49.6% 0.00 in 0 W/m2
16:49 39.1 °F 22 °F 30.13 in Calm     50% 0.00 in 0 W/m2
16:54 38.8 °F 21.8 °F 30.13 in Calm     50% 0.00 in 0 W/m2
16:59 38.6 °F 21.6 °F 30.13 in Calm     50% 0.00 in 0 W/m2
17:04 38.4 °F 21.4 °F 30.13 in Calm     50% 0.00 in 0 W/m2
17:09 38.3 °F 21.3 °F 30.13 in Calm     50% 0.00 in 0 W/m2
17:14 38.1 °F 21.4 °F 30.13 in Calm     50.4% 0.00 in 0 W/m2
17:19 38 °F 21.5 °F 30.13 in Calm     51% 0.00 in 0 W/m2
17:24 37.8 °F 21.3 °F 30.13 in Calm     51% 0.00 in 0 W/m2
17:29 37.7 °F 21.2 °F 30.13 in Calm     51.1% 0.00 in 0 W/m2
17:34 37.6 °F 21.8 °F 30.14 in Calm     52.5% 0.00 in 0 W/m2
17:39 37.4 °F 22.3 °F 30.14 in Calm     54% 0.00 in 0 W/m2
17:44 37.3 °F 22.6 °F 30.13 in Calm     55% 0.00 in 0 W/m2
17:49 37.1 °F 22.4 °F 30.13 in Calm     54.8% 0.00 in 0 W/m2
17:54 37 °F 21.9 °F 30.13 in Calm     54.1% 0.00 in 0 W/m2
17:59 36.9 °F 22.3 °F 30.12 in Calm   1 mph 55.1% 0.00 in 0 W/m2
18:04 36.7 °F 22.5 °F 30.12 in Calm   1 mph 56% 0.00 in 0 W/m2
18:09 36.6 °F 22.4 °F 30.12 in Calm     56% 0.00 in 0 W/m2
18:14 36.5 °F 22.6 °F 30.13 in Calm     56.8% 0.00 in 0 W/m2
18:19 36.3 °F 22.9 °F 30.13 in WSW 0.2 mph 1 mph 57.8% 0.00 in 0 W/m2
18:24 36.1 °F 23 °F 30.13 in WSW 0.1 mph 2 mph 58.8% 0.00 in 0 W/m2
18:29 35.8 °F 22.9 °F 30.14 in WSW 0.1 mph 2 mph 59% 0.00 in 0 W/m2
18:34 35.6 °F 22.7 °F 30.14 in WSW 0.1 mph 2 mph 59% 0.00 in 0 W/m2
18:39 35.5 °F 22.6 °F 30.14 in Calm   1 mph 59% 0.00 in 0 W/m2
18:44 35.4 °F 22.5 °F 30.15 in Calm   1 mph 59% 0.00 in 0 W/m2
18:49 35.3 °F 22.5 °F 30.15 in Calm   1 mph 59.1% 0.00 in 0 W/m2
18:54 35.2 °F 22.7 °F 30.15 in WSW 0.1 mph 1 mph 60% 0.00 in 0 W/m2
18:59 35.1 °F 22.6 °F 30.15 in Calm   1 mph 60% 0.00 in 0 W/m2
19:04 35 °F 22.5 °F 30.15 in Calm   1 mph 60% 0.00 in 0 W/m2
19:09 34.9 °F 22.3 °F 30.15 in WSW 0.2 mph 2 mph 59.7% 0.00 in 0 W/m2
19:14 34.9 °F 22.1 °F 30.15 in Calm   2 mph 59.2% 0.00 in 0 W/m2
19:19 34.9 °F 22.2 °F 30.15 in Calm   2 mph 59.5% 0.00 in 0 W/m2
19:24 34.9 °F 22.4 °F 30.15 in Calm   2 mph 59.9% 0.00 in 0 W/m2
19:29 34.8 °F 22.8 °F 30.16 in Calm   2 mph 61% 0.00 in 0 W/m2
19:34 34.8 °F 23 °F 30.15 in Calm   2 mph 61.8% 0.00 in 0 W/m2
19:39 34.6 °F 23 °F 30.16 in Calm     62% 0.00 in 0 W/m2
19:44 34.5 °F 22.9 °F 30.16 in Calm     62% 0.00 in 0 W/m2
19:49 34.4 °F 22.7 °F 30.16 in Calm     62% 0.00 in 0 W/m2
19:54 34.2 °F 22.8 °F 30.16 in Calm     62.7% 0.00 in 0 W/m2
19:59 34.1 °F 23 °F 30.16 in Calm     63.5% 0.00 in 0 W/m2
20:00 34 °F 22.7 °F 30.15 in Calm     63% 0.00 in 0 W/m2
20:09 33.9 °F 23 °F 30.15 in Calm     64% 0.00 in 0 W/m2
20:14 33.8 °F 22.6 °F 30.16 in Calm     63.1% 0.00 in 0 W/m2
20:19 33.8 °F 22.6 °F 30.16 in Calm     63% 0.00 in 0 W/m2
20:24 33.8 °F 22.6 °F 30.16 in Calm     63.2% 0.00 in 0 W/m2
20:29 33.8 °F 23.2 °F 30.16 in Calm     64.6% 0.00 in 0 W/m2
20:34 33.7 °F 23.3 °F 30.16 in Calm     65.2% 0.00 in 0 W/m2
20:39 33.6 °F 23.4 °F 30.16 in Calm     66% 0.00 in 0 W/m2
20:44 33.4 °F 23.3 °F 30.15 in Calm     65.9% 0.00 in 0 W/m2
20:49 33.3 °F 22.8 °F 30.15 in Calm     65% 0.00 in 0 W/m2
20:54 33.1 °F 22.6 °F 30.15 in Calm     65% 0.00 in 0 W/m2
20:59 33 °F 22.8 °F 30.16 in Calm     65.7% 0.00 in 0 W/m2
21:04 32.8 °F 23.1 °F 30.16 in Calm     66.9% 0.00 in 0 W/m2
21:09 32.7 °F 23.4 °F 30.16 in Calm     68.3% 0.00 in 0 W/m2
21:14 32.6 °F 23.5 °F 30.16 in Calm     69% 0.00 in 0 W/m2
21:19 32.4 °F 23.4 °F 30.16 in Calm     69% 0.00 in 0 W/m2
21:24 32.3 °F 23.3 °F 30.16 in Calm   1 mph 69% 0.00 in 0 W/m2
21:29 32.3 °F 23.3 °F 30.16 in Calm   1 mph 69% 0.00 in 0 W/m2
21:34 32.3 °F 23.7 °F 30.16 in Calm   1 mph 70.3% 0.00 in 0 W/m2
21:39 32.3 °F 24 °F 30.16 in Calm     71% 0.00 in 0 W/m2
21:44 32.2 °F 23.6 °F 30.16 in Calm     70.2% 0.00 in 0 W/m2
21:49 32.2 °F 23.5 °F 30.17 in Calm     70% 0.00 in 0 W/m2
21:54 32.2 °F 23.5 °F 30.17 in Calm     70% 0.00 in 0 W/m2
21:59 32.2 °F 23.4 °F 30.17 in Calm     69.6% 0.00 in 0 W/m2
22:04 32.3 °F 23 °F 30.17 in Calm     68.2% 0.00 in 0 W/m2
22:09 32.5 °F 23.1 °F 30.17 in Calm     68% 0.00 in 0 W/m2
22:14 32.6 °F 23.5 °F 30.17 in Calm     68.8% 0.00 in 0 W/m2
22:19 32.6 °F 23.4 °F 30.17 in Calm     68.5% 0.00 in 0 W/m2
22:24 32.6 °F 23.2 °F 30.17 in Calm     68% 0.00 in 0 W/m2
22:29 32.6 °F 23.2 °F 30.17 in Calm     68% 0.00 in 0 W/m2
22:34 32.6 °F 22.9 °F 30.17 in Calm     67.1% 0.00 in 0 W/m2
22:39 32.6 °F 22.9 °F 30.17 in Calm     67% 0.00 in 0 W/m2
22:44 32.5 °F 22.8 °F 30.17 in Calm     67% 0.00 in 0 W/m2
22:49 32.5 °F 22.9 °F 30.17 in Calm     67.3% 0.00 in 0 W/m2
22:54 32.5 °F 23.2 °F 30.17 in Calm     68.4% 0.00 in 0 W/m2
22:59 32.4 °F 23.5 °F 30.17 in Calm     69.4% 0.00 in 0 W/m2
23:09 32.3 °F 24 °F 30.17 in Calm     71% 0.00 in 0 W/m2
23:14 32.3 °F 24.1 °F 30.17 in Calm     71.3% 0.00 in 0 W/m2
23:19 32.3 °F 24.3 °F 30.17 in Calm   2 mph 72.1% 0.00 in 0 W/m2
23:24 32.3 °F 24.6 °F 30.16 in Calm   2 mph 73% 0.00 in 0 W/m2
23:29 32.2 °F 24.3 °F 30.16 in Calm   2 mph 72.2% 0.00 in 0 W/m2
23:34 32.2 °F 24.6 °F 30.16 in Calm   2 mph 73.3% 0.00 in 0 W/m2
23:39 32.3 °F 24.9 °F 30.16 in Calm     74% 0.00 in 0 W/m2
23:44 32.3 °F 25 °F 30.16 in Calm     74% 0.00 in 0 W/m2
23:49 32.3 °F 25.1 °F 30.16 in Calm     74.4% 0.00 in 0 W/m2
23:54 32.4 °F 25.3 °F 30.16 in Calm     75% 0.00 in 0 W/m2
23:59 32.4 °F 25.4 °F 30.15 in Calm     75% 0.00 in 0 W/m2
Hartford County Weather
Compliments of Weather Underground - 4 mb